Time;durP1;ratioP1;P1;durP2;ratioP2;P2;SDS_P1;SDS_P2;PMS_P1;PMS_P2;Temp;Humidity;BMP_temperature;BMP_pressure;BME280_temperature;BME280_humidity;BME280_pressure;Samples;Min_cycle;Max_cycle;Signal;HPM_P1;HPM_P2
2023/10/28 00:00:06;;;;;;;8.35;5.07;;;-0.90;99.90;;;;;;4995181;28;20222;-93
2023/10/28 00:02:34;;;;;;;7.95;4.80;;;-0.90;99.90;;;;;;4996290;28;20194;-93
2023/10/28 00:05:02;;;;;;;10.23;5.53;;;-1.00;99.90;;;;;;5012283;28;20653;-94
2023/10/28 00:07:29;;;;;;;8.25;4.85;;;-0.80;99.90;;;;;;5028205;28;20198;-92
2023/10/28 00:09:57;;;;;;;10.48;5.20;;;-0.80;99.90;;;;;;4995425;28;20198;-92
2023/10/28 00:12:24;;;;;;;9.10;5.18;;;-0.80;99.90;;;;;;4995639;28;20202;-92
2023/10/28 00:14:52;;;;;;;12.73;5.40;;;-0.70;99.90;;;;;;4995565;28;20205;-93
2023/10/28 00:17:20;;;;;;;9.98;5.85;;;-0.80;99.90;;;;;;5011501;28;20694;-92
2023/10/28 00:19:48;;;;;;;9.90;5.57;;;-0.80;99.90;;;;;;5011882;28;20210;-92
2023/10/28 00:22:19;;;;;;;8.90;5.43;;;-0.70;99.90;;;;;;4995431;28;20187;-92
2023/10/28 00:24:47;;;;;;;7.35;5.15;;;-0.80;99.90;;;;;;5027938;28;20186;-92
2023/10/28 00:27:15;;;;;;;9.85;5.78;;;-0.80;99.90;;;;;;4997295;28;20202;-92
2023/10/28 00:29:45;;;;;;;8.88;5.63;;;-0.70;99.90;;;;;;5011838;28;20191;-92
2023/10/28 00:32:12;;;;;;;9.65;5.63;;;-0.80;99.90;;;;;;5004301;28;20248;-91
2023/10/28 00:34:40;;;;;;;13.18;5.47;;;-0.80;99.90;;;;;;5047541;28;20236;-92
2023/10/28 00:37:08;;;;;;;9.68;5.07;;;-0.80;99.90;;;;;;5032373;28;20197;-93
2023/10/28 00:39:37;;;;;;;11.10;5.30;;;-0.80;99.90;;;;;;5047453;28;20224;-92
2023/10/28 00:42:06;;;;;;;11.05;5.57;;;-0.80;99.90;;;;;;5047968;28;20190;-92
2023/10/28 00:44:34;;;;;;;8.05;4.93;;;-0.80;99.90;;;;;;5064528;28;20204;-92
2023/10/28 00:47:02;;;;;;;8.18;4.75;;;-0.90;99.90;;;;;;5031249;28;20193;-92
2023/10/28 00:49:30;;;;;;;8.80;5.05;;;-0.90;99.90;;;;;;5047277;28;20730;-92
2023/10/28 00:51:59;;;;;;;9.00;4.88;;;-0.90;99.90;;;;;;5048204;28;20665;-94
2023/10/28 00:54:27;;;;;;;9.50;5.60;;;-0.90;99.90;;;;;;5031194;28;20201;-91
2023/10/28 00:56:56;;;;;;;10.07;5.40;;;-0.90;99.90;;;;;;5047098;28;20252;-92
2023/10/28 00:59:24;;;;;;;10.00;5.47;;;-0.90;99.90;;;;;;5047181;28;20699;-92
2023/10/28 01:01:52;;;;;;;8.15;4.90;;;-0.90;99.90;;;;;;5063554;28;20186;-93
2023/10/28 01:04:21;;;;;;;9.00;4.97;;;-0.90;99.90;;;;;;5064006;28;20656;-93
2023/10/28 01:06:48;;;;;;;9.30;5.28;;;-0.90;99.90;;;;;;5030601;28;20275;-90
2023/10/28 01:09:16;;;;;;;12.38;6.15;;;-0.90;99.90;;;;;;5030599;28;20656;-91
2023/10/28 01:11:44;;;;;;;9.57;5.68;;;-0.90;99.90;;;;;;5062857;28;20193;-93
2023/10/28 01:14:13;;;;;;;10.85;6.13;;;-0.90;99.90;;;;;;5046818;28;20205;-93
2023/10/28 01:16:40;;;;;;;10.10;5.57;;;-0.80;99.90;;;;;;5047121;28;20652;-92
2023/10/28 01:19:09;;;;;;;10.02;5.30;;;-0.90;99.90;;;;;;5047553;28;20237;-91
2023/10/28 01:21:37;;;;;;;11.18;5.60;;;-0.90;99.90;;;;;;5063512;28;20192;-91
2023/10/28 01:24:07;;;;;;;9.05;5.55;;;-0.90;99.90;;;;;;5030577;28;20190;-93
2023/10/28 01:26:36;;;;;;;11.15;5.57;;;-1.00;99.90;;;;;;5047052;28;20200;-93
2023/10/28 01:29:05;;;;;;;12.80;5.80;;;-0.90;99.90;;;;;;5030604;28;20190;-92
2023/10/28 01:31:33;;;;;;;9.00;5.65;;;-0.90;99.90;;;;;;5046850;28;20198;-92
2023/10/28 01:34:01;;;;;;;9.02;5.32;;;-1.00;99.90;;;;;;5046477;28;20235;-92
2023/10/28 01:36:29;;;;;;;11.10;5.75;;;-0.90;99.90;;;;;;5046824;28;20198;-92
2023/10/28 01:38:58;;;;;;;10.82;5.78;;;-0.90;99.90;;;;;;5047201;28;20193;-92
2023/10/28 01:41:26;;;;;;;10.60;5.43;;;-1.00;99.90;;;;;;5046742;28;20197;-92
2023/10/28 01:43:54;;;;;;;9.52;5.43;;;-1.10;99.90;;;;;;5046846;28;20197;-94
2023/10/28 01:46:22;;;;;;;12.10;6.53;;;-1.00;99.90;;;;;;5046882;28;20193;-93
2023/10/28 01:48:49;;;;;;;12.18;5.88;;;-1.00;99.90;;;;;;5046451;28;20198;-93
2023/10/28 01:51:17;;;;;;;10.55;6.03;;;-1.00;99.90;;;;;;5046504;28;20190;-92
2023/10/28 01:53:45;;;;;;;10.23;5.68;;;-1.10;99.90;;;;;;5046793;28;20197;-92
2023/10/28 01:56:12;;;;;;;11.85;5.70;;;-1.00;99.90;;;;;;5046439;28;20209;-92
2023/10/28 01:58:40;;;;;;;11.27;5.93;;;-1.00;99.90;;;;;;5029924;28;20197;-93
2023/10/28 02:01:08;;;;;;;10.10;5.90;;;-1.10;99.90;;;;;;5030134;28;20217;-92
2023/10/28 02:03:36;;;;;;;11.73;5.78;;;-1.00;99.90;;;;;;5046626;28;20217;-92
2023/10/28 02:06:05;;;;;;;10.55;5.72;;;-1.00;99.90;;;;;;5030032;28;20541;-92
2023/10/28 02:08:33;;;;;;;9.32;5.57;;;-1.00;99.90;;;;;;5046686;28;20844;-91
2023/10/28 02:11:01;;;;;;;11.23;5.97;;;-1.00;99.90;;;;;;5030267;28;20194;-93
2023/10/28 02:13:30;;;;;;;12.95;6.43;;;-1.00;99.90;;;;;;5029888;28;20292;-91
2023/10/28 02:15:58;;;;;;;10.80;6.25;;;-1.00;99.90;;;;;;5046812;28;20201;-92
2023/10/28 02:18:26;;;;;;;11.05;5.97;;;-1.00;99.90;;;;;;5031246;28;20190;-92
2023/10/28 02:20:54;;;;;;;10.65;6.03;;;-1.00;99.90;;;;;;5030224;28;20218;-91
2023/10/28 02:23:21;;;;;;;11.60;6.43;;;-1.00;99.90;;;;;;5030637;28;20198;-92
2023/10/28 02:25:49;;;;;;;12.32;5.97;;;-0.90;99.90;;;;;;5049948;28;20204;-92
2023/10/28 02:28:17;;;;;;;13.07;6.30;;;-0.90;99.90;;;;;;5033262;28;20193;-93
2023/10/28 02:30:44;;;;;;;10.48;5.53;;;-0.90;99.90;;;;;;5033578;28;20225;-93
2023/10/28 02:33:12;;;;;;;12.35;6.55;;;-0.90;99.90;;;;;;5033697;28;20198;-91
2023/10/28 02:35:40;;;;;;;12.20;6.43;;;-1.00;99.90;;;;;;5049973;28;20190;-93
2023/10/28 02:38:08;;;;;;;10.05;5.70;;;-1.00;99.90;;;;;;5049798;28;20276;-92
2023/10/28 02:40:35;;;;;;;12.65;6.75;;;-1.10;99.90;;;;;;5033002;28;20221;-93
2023/10/28 02:43:03;;;;;;;13.52;6.18;;;-1.00;99.90;;;;;;5032949;28;20513;-93
2023/10/28 02:45:30;;;;;;;13.85;6.20;;;-1.10;99.90;;;;;;5066094;28;20189;-93
2023/10/28 02:47:58;;;;;;;12.43;5.93;;;-1.10;99.90;;;;;;5049526;28;20193;-93
2023/10/28 02:50:26;;;;;;;11.00;5.93;;;-1.10;99.90;;;;;;5049528;28;20640;-92
2023/10/28 02:52:54;;;;;;;10.15;5.57;;;-1.10;99.90;;;;;;5049668;28;20228;-92
2023/10/28 02:55:21;;;;;;;10.02;5.57;;;-1.10;99.90;;;;;;5033022;28;20660;-92
2023/10/28 02:57:50;;;;;;;11.30;6.05;;;-1.00;99.90;;;;;;5049032;28;20276;-93
2023/10/28 03:00:18;;;;;;;10.32;5.57;;;-0.90;99.90;;;;;;5033102;28;20221;-92
2023/10/28 03:02:45;;;;;;;10.05;5.78;;;-1.00;99.90;;;;;;5048956;28;20200;-93
2023/10/28 03:05:13;;;;;;;11.48;6.63;;;-0.90;99.90;;;;;;5032708;28;20194;-92
2023/10/28 03:07:42;;;;;;;9.57;5.70;;;-0.90;99.90;;;;;;5048779;28;20190;-92
2023/10/28 03:10:10;;;;;;;9.93;5.28;;;-0.90;99.90;;;;;;5032678;28;20235;-93
2023/10/28 03:12:37;;;;;;;10.70;5.72;;;-1.00;99.90;;;;;;5049362;28;20631;-93
2023/10/28 03:15:08;;;;;;;85.93;79.05;;;-1.00;99.90;;;;;;5065705;28;20205;-93
2023/10/28 03:17:37;;;;;;;11.45;6.07;;;-1.00;99.90;;;;;;5065757;28;20232;-93
2023/10/28 03:20:09;;;;;;;10.60;5.07;;;-1.00;99.90;;;;;;5032729;28;20309;-94
2023/10/28 03:22:37;;;;;;;11.13;6.40;;;-0.90;99.90;;;;;;5049150;28;20186;-93
2023/10/28 03:25:05;;;;;;;9.98;6.28;;;-0.80;99.90;;;;;;5032342;28;20644;-93
2023/10/28 03:27:32;;;;;;;10.15;5.40;;;-0.90;99.90;;;;;;5040351;28;20194;-93
2023/10/28 03:30:00;;;;;;;9.55;6.05;;;-1.00;99.90;;;;;;5029075;28;20190;-93
2023/10/28 03:32:31;;;;;;;9.85;6.32;;;-1.00;99.90;;;;;;5012978;28;20199;-93
2023/10/28 03:34:58;;;;;;;10.38;5.60;;;-1.00;99.90;;;;;;4996355;28;20232;-91
2023/10/28 03:37:26;;;;;;;9.45;6.07;;;-1.00;99.90;;;;;;5013219;28;20225;-93
2023/10/28 03:39:55;;;;;;;9.52;5.88;;;-1.00;99.90;;;;;;5029349;28;20214;-92
2023/10/28 03:42:23;;;;;;;9.85;6.15;;;-1.00;99.90;;;;;;5028434;28;20194;-92
2023/10/28 03:44:51;;;;;;;12.32;6.70;;;-1.10;99.90;;;;;;5045397;28;20207;-92
2023/10/28 03:47:18;;;;;;;9.50;5.45;;;-1.20;99.90;;;;;;5029474;28;20186;-93
2023/10/28 03:49:46;;;;;;;12.60;6.50;;;-1.10;99.90;;;;;;5028329;28;20222;-93
2023/10/28 03:52:14;;;;;;;9.52;5.43;;;-1.10;99.90;;;;;;5012152;28;20672;-92
2023/10/28 03:54:42;;;;;;;9.95;5.65;;;-1.10;99.90;;;;;;5028847;28;20248;-92
2023/10/28 03:57:09;;;;;;;9.02;5.68;;;-1.00;99.90;;;;;;5028789;28;20187;-92
2023/10/28 03:59:37;;;;;;;11.10;6.18;;;-1.10;99.90;;;;;;4995918;28;20277;-92
2023/10/28 04:02:05;;;;;;;9.23;5.75;;;-1.10;99.90;;;;;;5028435;28;20661;-92
2023/10/28 04:04:32;;;;;;;11.52;5.90;;;-1.10;99.90;;;;;;5028333;28;20194;-93
2023/10/28 04:07:00;;;;;;;12.73;6.22;;;-1.10;99.90;;;;;;5028272;28;20201;-92
2023/10/28 04:09:28;;;;;;;12.27;6.70;;;-1.00;99.90;;;;;;5012777;28;20217;-91
2023/10/28 04:11:56;;;;;;;10.95;5.90;;;-1.10;99.90;;;;;;5028282;28;20286;-92
2023/10/28 04:14:24;;;;;;;10.80;6.47;;;-1.10;99.90;;;;;;5045178;28;20190;-93
2023/10/28 04:16:52;;;;;;;10.65;6.05;;;-1.10;99.90;;;;;;5028171;28;20199;-93
2023/10/28 04:19:20;;;;;;;13.23;6.15;;;-1.20;99.90;;;;;;5029529;28;20190;-93
2023/10/28 04:21:47;;;;;;;12.27;6.43;;;-1.00;99.90;;;;;;5030939;28;20227;-92
2023/10/28 04:24:15;;;;;;;9.27;5.65;;;-1.00;99.90;;;;;;5030766;28;20244;-92
2023/10/28 04:26:43;;;;;;;11.80;6.43;;;-1.00;99.90;;;;;;5047742;28;20687;-93
2023/10/28 04:29:10;;;;;;;12.32;5.88;;;-1.00;99.90;;;;;;5031481;28;20244;-93
2023/10/28 04:31:38;;;;;;;11.15;5.38;;;-1.10;99.90;;;;;;5031116;28;20198;-93
2023/10/28 04:34:09;;;;;;;10.50;6.18;;;-1.10;99.90;;;;;;5047753;28;20233;-93
2023/10/28 04:36:37;;;;;;;10.85;6.40;;;-1.10;99.90;;;;;;5047288;28;20194;-93
2023/10/28 04:39:05;;;;;;;10.60;5.60;;;-1.00;99.90;;;;;;5047632;28;20198;-93
2023/10/28 04:41:33;;;;;;;11.85;6.30;;;-1.10;99.90;;;;;;5030611;28;20214;-93
2023/10/28 04:44:01;;;;;;;10.05;6.07;;;-1.00;99.90;;;;;;5047679;28;20359;-92
2023/10/28 04:46:29;;;;;;;11.20;5.82;;;-1.20;99.90;;;;;;5030819;28;20269;-92
2023/10/28 04:48:57;;;;;;;8.48;5.30;;;-1.10;99.90;;;;;;5031325;28;20220;-94
2023/10/28 04:51:25;;;;;;;9.45;5.55;;;-1.20;99.90;;;;;;5027101;28;20379;-93
2023/10/28 04:53:53;;;;;;;10.35;5.93;;;-1.10;99.90;;;;;;5027226;28;20202;-92
2023/10/28 04:56:21;;;;;;;9.32;5.30;;;-1.10;99.90;;;;;;5027281;28;20198;-93
2023/10/28 04:58:49;;;;;;;9.57;5.85;;;-1.10;99.90;;;;;;5027231;28;20277;-92
2023/10/28 05:01:16;;;;;;;11.15;5.22;;;-1.10;99.90;;;;;;5027561;28;20217;-91
2023/10/28 05:03:44;;;;;;;9.07;4.82;;;-1.20;99.90;;;;;;5027745;28;20187;-92
2023/10/28 05:06:12;;;;;;;10.25;5.30;;;-1.20;99.90;;;;;;5011017;28;20289;-91
2023/10/28 05:08:40;;;;;;;9.23;4.90;;;-1.20;99.90;;;;;;5044329;28;20199;-93
2023/10/28 05:11:08;;;;;;;9.82;4.82;;;-1.20;99.90;;;;;;5026867;28;20187;-92
2023/10/28 05:13:36;;;;;;;9.70;5.18;;;-1.10;99.90;;;;;;5027387;28;20191;-92
2023/10/28 05:16:04;;;;;;;8.02;4.70;;;-1.10;99.90;;;;;;5043670;28;20195;-93
2023/10/28 05:18:31;;;;;;;8.75;4.47;;;-1.10;99.90;;;;;;5043916;28;20197;-92
2023/10/28 05:20:59;;;;;;;9.00;5.22;;;-1.20;99.90;;;;;;5043531;28;20280;-93
2023/10/28 05:23:27;;;;;;;7.00;4.75;;;-1.10;99.90;;;;;;5027160;28;20281;-92
2023/10/28 05:25:55;;;;;;;8.65;5.30;;;-1.10;99.90;;;;;;5011737;28;20192;-92
2023/10/28 05:28:22;;;;;;;8.55;5.03;;;-1.10;99.90;;;;;;5026948;28;20244;-93
2023/10/28 05:30:50;;;;;;;9.57;5.30;;;-1.20;99.90;;;;;;5026975;28;20245;-92
2023/10/28 05:33:18;;;;;;;7.80;4.65;;;-1.20;99.90;;;;;;5010557;28;20209;-93
2023/10/28 05:35:46;;;;;;;9.80;5.32;;;-1.20;99.90;;;;;;5043272;28;20178;-94
2023/10/28 05:38:13;;;;;;;8.20;4.75;;;-1.20;99.90;;;;;;5026785;28;20233;-94
2023/10/28 05:40:41;;;;;;;7.30;4.60;;;-1.20;99.90;;;;;;5043209;28;20653;-93
2023/10/28 05:43:09;;;;;;;9.13;5.25;;;-1.10;99.90;;;;;;5027158;28;20213;-93
2023/10/28 05:45:37;;;;;;;11.07;6.20;;;-1.10;99.90;;;;;;5010322;28;20187;-93
2023/10/28 05:48:06;;;;;;;9.35;5.60;;;-1.10;99.90;;;;;;5027167;28;20199;-92
2023/10/28 05:50:34;;;;;;;10.13;5.55;;;-1.20;99.90;;;;;;5027439;28;20195;-94
2023/10/28 05:53:03;;;;;;;10.85;6.28;;;-1.20;99.90;;;;;;5043383;28;20573;-93
2023/10/28 05:55:31;;;;;;;10.27;5.80;;;-1.20;99.90;;;;;;5026887;28;20206;-91
2023/10/28 05:57:59;;;;;;;10.57;5.60;;;-1.30;99.90;;;;;;5013041;28;20734;-92
2023/10/28 06:00:28;;;;;;;11.02;6.18;;;-1.20;99.90;;;;;;5030305;28;20215;-92
2023/10/28 06:02:56;;;;;;;10.27;5.90;;;-1.20;99.90;;;;;;5021795;28;20773;-93
2023/10/28 06:05:25;;;;;;;12.13;6.00;;;-1.20;99.90;;;;;;5050017;28;20186;-94
2023/10/28 06:07:53;;;;;;;10.50;5.50;;;-1.20;99.90;;;;;;5033285;28;20229;-93
2023/10/28 06:10:22;;;;;;;10.15;5.70;;;-1.20;99.90;;;;;;5033421;28;20213;-92
2023/10/28 06:12:51;;;;;;;10.35;5.80;;;-1.20;99.90;;;;;;5028886;28;20210;-90
2023/10/28 06:15:18;;;;;;;9.55;5.90;;;-1.20;99.90;;;;;;5029496;28;20214;-93
2023/10/28 06:17:47;;;;;;;11.85;6.32;;;-1.10;99.90;;;;;;5029911;28;20190;-92
2023/10/28 06:20:15;;;;;;;10.25;5.93;;;-1.20;99.90;;;;;;5024904;28;20277;-92
2023/10/28 06:22:43;;;;;;;10.50;6.10;;;-1.20;99.90;;;;;;5006225;28;20293;-93
2023/10/28 06:25:10;;;;;;;10.82;6.03;;;-1.20;99.90;;;;;;5049321;28;20340;-92
2023/10/28 06:27:38;;;;;;;15.32;7.38;;;-1.20;99.90;;;;;;5066428;28;20193;-93
2023/10/28 06:30:07;;;;;;;11.25;6.47;;;-1.10;99.90;;;;;;5047979;28;20355;-91
2023/10/28 06:32:35;;;;;;;11.23;6.53;;;-1.20;99.90;;;;;;5049262;28;20189;-92
2023/10/28 06:35:04;;;;;;;12.35;6.32;;;-1.20;99.90;;;;;;5034150;28;20222;-91
2023/10/28 06:37:32;;;;;;;10.15;5.97;;;-1.10;99.90;;;;;;4996961;28;20202;-91
2023/10/28 06:40:00;;;;;;;10.57;5.85;;;-1.00;99.90;;;;;;5028980;28;20661;-91
2023/10/28 06:42:28;;;;;;;8.73;5.10;;;-1.20;99.90;;;;;;5029122;28;20230;-91
2023/10/28 06:44:57;;;;;;;9.20;5.45;;;-1.20;99.90;;;;;;5013326;28;20214;-91
2023/10/28 06:47:25;;;;;;;11.70;5.97;;;-1.10;99.90;;;;;;5029039;28;20179;-92
2023/10/28 06:49:53;;;;;;;12.30;6.28;;;-1.10;99.90;;;;;;5012828;28;20252;-91
2023/10/28 06:52:22;;;;;;;12.57;6.38;;;-1.10;99.90;;;;;;5012722;28;20645;-92
2023/10/28 06:54:50;;;;;;;12.70;7.10;;;-1.10;99.90;;;;;;5028939;28;20205;-91
2023/10/28 06:57:18;;;;;;;14.23;6.78;;;-1.10;99.90;;;;;;4996303;28;20198;-93
2023/10/28 06:59:45;;;;;;;12.50;7.00;;;-1.10;99.90;;;;;;5012786;28;20195;-93
2023/10/28 07:02:13;;;;;;;12.13;7.03;;;-1.20;99.90;;;;;;5013027;28;20211;-91
2023/10/28 07:04:41;;;;;;;12.60;6.90;;;-1.10;99.90;;;;;;5012708;28;20365;-94
2023/10/28 07:07:14;;;;;;;14.32;8.18;;;-1.10;99.90;;;;;;5014170;28;20195;-92
2023/10/28 07:09:42;;;;;;;14.32;7.28;;;-1.00;99.90;;;;;;5021252;28;20201;-93
2023/10/28 07:12:11;;;;;;;12.95;7.53;;;-1.00;99.90;;;;;;5032755;28;20564;-94
2023/10/28 07:14:38;;;;;;;15.45;8.23;;;-1.10;99.90;;;;;;5049052;28;20240;-93
2023/10/28 07:17:06;;;;;;;16.42;8.32;;;-1.10;99.90;;;;;;5048771;28;20193;-93
2023/10/28 07:19:34;;;;;;;12.45;7.22;;;-1.00;99.90;;;;;;5032373;28;20198;-92
2023/10/28 07:22:01;;;;;;;15.52;7.68;;;-1.20;99.90;;;;;;5015065;28;20216;-91
2023/10/28 07:24:29;;;;;;;17.13;8.10;;;-1.20;99.90;;;;;;5048064;28;20236;-91
2023/10/28 07:26:57;;;;;;;16.42;9.55;;;-1.10;99.90;;;;;;5048355;28;20182;-90
2023/10/28 07:29:25;;;;;;;16.75;8.55;;;-1.20;99.90;;;;;;5031650;28;20198;-92
2023/10/28 07:31:53;;;;;;;15.38;7.25;;;-1.20;99.90;;;;;;5048250;28;20369;-92
2023/10/28 07:34:21;;;;;;;14.02;7.45;;;-1.10;99.90;;;;;;5047883;28;20249;-92
2023/10/28 07:36:48;;;;;;;17.17;8.57;;;-1.10;99.90;;;;;;5047637;28;20189;-90
2023/10/28 07:39:16;;;;;;;17.17;9.18;;;-1.10;99.90;;;;;;5064578;28;20198;-91
2023/10/28 07:41:44;;;;;;;15.98;8.60;;;-1.10;99.90;;;;;;5014615;28;20824;-91
2023/10/28 07:44:12;;;;;;;19.95;10.40;;;-1.20;99.90;;;;;;5031162;28;20672;-91
2023/10/28 07:46:40;;;;;;;17.70;9.52;;;-1.10;99.90;;;;;;5047343;28;20682;-91
2023/10/28 07:49:07;;;;;;;18.65;10.75;;;-1.20;99.90;;;;;;5047744;28;20558;-90
2023/10/28 07:51:35;;;;;;;17.70;8.80;;;-1.20;99.90;;;;;;5031053;28;20202;-93
2023/10/28 07:54:04;;;;;;;17.63;9.07;;;-1.20;99.90;;;;;;5031710;28;20204;-91
2023/10/28 07:56:32;;;;;;;18.70;8.48;;;-1.20;99.90;;;;;;5030918;28;20244;-91
2023/10/28 07:59:01;;;;;;;19.77;9.20;;;-1.20;99.90;;;;;;5047202;28;20224;-94
2023/10/28 08:01:29;;;;;;;17.83;10.25;;;-1.10;99.90;;;;;;5031381;28;20201;-91
2023/10/28 08:03:58;;;;;;;18.45;9.23;;;-1.10;99.90;;;;;;5030890;28;20197;-90
2023/10/28 08:06:27;;;;;;;18.65;10.77;;;-1.10;99.90;;;;;;5011298;28;20194;-91
2023/10/28 08:09:05;;;;;;;18.63;9.02;;;-1.10;99.90;;;;;;5015266;28;20190;-91
2023/10/28 08:11:33;;;;;;;16.45;8.02;;;-1.10;99.90;;;;;;4997522;28;20198;-91
2023/10/28 08:14:03;;;;;;;16.98;8.80;;;-1.20;99.90;;;;;;5029810;28;20218;-91
2023/10/28 08:16:34;;;;;;;14.75;7.82;;;-1.20;99.90;;;;;;5031794;28;20192;-89
2023/10/28 08:19:03;;;;;;;16.98;8.18;;;-1.10;99.90;;;;;;5023698;28;20272;-91
2023/10/28 08:21:31;;;;;;;15.70;8.30;;;-1.10;99.90;;;;;;5016610;28;20594;-89
2023/10/28 08:24:00;;;;;;;16.98;8.90;;;-1.10;99.90;;;;;;5021377;28;20202;-91
2023/10/28 08:26:27;;;;;;;16.92;8.52;;;-1.10;99.90;;;;;;5016678;28;20552;-90
2023/10/28 08:28:55;;;;;;;15.50;8.52;;;-1.10;99.90;;;;;;5016924;28;20194;-91
2023/10/28 08:31:23;;;;;;;19.92;10.05;;;-1.10;99.90;;;;;;5037318;28;20209;-91
2023/10/28 08:33:52;;;;;;;18.48;9.25;;;-1.10;99.90;;;;;;5028892;28;20627;-92
2023/10/28 08:36:19;;;;;;;20.65;12.80;;;-1.10;99.90;;;;;;5014369;28;20197;-90
2023/10/28 08:38:47;;;;;;;16.17;8.75;;;-1.10;99.90;;;;;;5021727;28;20731;-91
2023/10/28 08:41:21;;;;;;;19.80;10.60;;;-1.00;99.90;;;;;;5030979;28;20650;-91
2023/10/28 08:43:51;;;;;;;22.23;10.10;;;-1.00;99.90;;;;;;5055940;28;20201;-90
2023/10/28 08:46:19;;;;;;;16.65;8.75;;;-1.00;99.90;;;;;;5014312;28;20302;-91
2023/10/28 08:48:48;;;;;;;16.92;8.98;;;-1.10;99.90;;;;;;5032274;28;20210;-89
2023/10/28 08:51:20;;;;;;;18.42;9.02;;;-1.10;99.90;;;;;;5049953;28;20205;-91
2023/10/28 08:53:55;;;;;;;16.38;9.15;;;-1.10;99.90;;;;;;5016363;28;20195;-92
2023/10/28 08:56:26;;;;;;;16.60;9.05;;;-1.10;99.90;;;;;;5048468;28;20252;-91
2023/10/28 08:58:55;;;;;;;15.68;9.45;;;-1.10;99.90;;;;;;5018197;28;20201;-90
2023/10/28 09:01:24;;;;;;;17.08;8.95;;;-1.00;99.90;;;;;;5014270;28;20215;-90
2023/10/28 09:03:59;;;;;;;17.85;8.93;;;-1.00;99.90;;;;;;5017699;28;20195;-91
2023/10/28 09:06:28;;;;;;;18.48;8.98;;;-1.00;99.90;;;;;;5026241;28;20201;-91
2023/10/28 09:08:57;;;;;;;16.02;8.98;;;-1.00;99.90;;;;;;5003475;28;20195;-91
2023/10/28 09:11:25;;;;;;;15.98;8.95;;;-0.90;99.90;;;;;;5013446;28;20249;-91
2023/10/28 09:13:53;;;;;;;17.17;8.98;;;-0.90;99.90;;;;;;5026166;28;20194;-90
2023/10/28 09:16:21;;;;;;;13.88;7.75;;;-0.90;99.90;;;;;;5009847;28;20718;-91
2023/10/28 09:18:49;;;;;;;15.90;8.40;;;-0.80;99.90;;;;;;5026578;28;20672;-91
2023/10/28 09:21:19;;;;;;;20.55;9.18;;;-0.90;99.90;;;;;;5043767;28;20202;-90
2023/10/28 09:23:46;;;;;;;17.70;8.80;;;-0.90;99.90;;;;;;5063198;28;20644;-91
2023/10/28 09:26:14;;;;;;;17.08;9.60;;;-0.80;99.90;;;;;;5046466;28;20637;-91
2023/10/28 09:28:46;;;;;;;16.40;8.50;;;-0.90;99.90;;;;;;5029679;28;20178;-91
2023/10/28 09:31:25;;;;;;;15.85;9.40;;;-0.90;99.90;;;;;;5031385;28;20237;-92
2023/10/28 09:33:53;;;;;;;15.77;8.55;;;-0.80;99.90;;;;;;5048268;28;20224;-91
2023/10/28 09:36:21;;;;;;;17.25;9.38;;;-0.90;99.90;;;;;;5017030;28;20197;-91
2023/10/28 09:38:50;;;;;;;18.30;9.55;;;-0.90;99.90;;;;;;5033609;28;20770;-91
2023/10/28 09:41:19;;;;;;;15.50;9.40;;;-0.80;99.90;;;;;;5030326;28;20245;-89
2023/10/28 09:43:47;;;;;;;16.63;9.63;;;-0.80;99.90;;;;;;5030847;28;20205;-93
2023/10/28 09:46:20;;;;;;;19.45;8.88;;;-0.80;99.90;;;;;;5014201;28;20225;-93
2023/10/28 09:48:51;;;;;;;17.60;9.30;;;-0.90;99.90;;;;;;5047411;28;20182;-92
2023/10/28 09:51:25;;;;;;;18.75;10.15;;;-0.90;99.90;;;;;;5051669;28;20186;-93
2023/10/28 09:54:00;;;;;;;15.93;8.38;;;-1.00;99.90;;;;;;5015428;28;20198;-93
2023/10/28 09:56:34;;;;;;;16.60;8.82;;;-0.90;99.90;;;;;;5047660;28;20208;-93
2023/10/28 09:59:13;;;;;;;16.80;8.25;;;-1.00;99.90;;;;;;5014603;28;20194;-93
2023/10/28 10:02:06;;;;;;;17.13;10.00;;;-1.00;99.90;;;;;;5014286;28;20221;-93
2023/10/28 10:04:47;;;;;;;19.20;9.10;;;-0.90;99.90;;;;;;5030203;28;20277;-92
2023/10/28 10:07:16;;;;;;;15.50;8.40;;;-0.80;99.90;;;;;;5031155;28;20644;-93
2023/10/28 10:09:47;;;;;;;12.88;7.47;;;-0.80;99.90;;;;;;5014244;28;20281;-92
2023/10/28 10:12:16;;;;;;;13.90;7.75;;;-0.90;99.90;;;;;;5030443;28;20642;-92
2023/10/28 10:14:47;;;;;;;15.40;8.77;;;-0.90;99.90;;;;;;5047156;28;20194;-87
2023/10/28 10:17:49;;;;;;;15.70;8.40;;;-0.90;99.90;;;;;;5029640;28;20191;-89
2023/10/28 10:20:27;;;;;;;15.23;8.35;;;-0.90;99.90;;;;;;5042389;28;20193;-91
2023/10/28 10:23:03;;;;;;;15.27;7.82;;;-0.90;99.90;;;;;;5017178;28;20214;-90
2023/10/28 10:25:40;;;;;;;13.57;7.38;;;-0.90;99.90;;;;;;5066182;28;20224;-90
2023/10/28 10:28:19;;;;;;;14.23;7.88;;;-0.90;99.90;;;;;;5016563;28;20205;-91
2023/10/28 10:30:52;;;;;;;15.75;8.35;;;-0.80;99.90;;;;;;5032991;28;20185;-91
2023/10/28 10:33:25;;;;;;;15.07;9.10;;;-0.80;99.90;;;;;;5050138;28;20182;-90
2023/10/28 10:35:54;;;;;;;15.95;8.85;;;-0.80;99.90;;;;;;5049626;28;20739;-90
2023/10/28 10:38:30;;;;;;;14.73;7.82;;;-0.80;99.90;;;;;;5009857;28;20198;-89
2023/10/28 10:40:59;;;;;;;18.60;8.27;;;-0.80;99.90;;;;;;5060703;28;20205;-90
2023/10/28 10:43:31;;;;;;;14.27;7.30;;;-0.80;99.90;;;;;;5049411;28;20229;-91
2023/10/28 10:45:59;;;;;;;15.05;8.50;;;-0.70;99.90;;;;;;5032996;28;20933;-92
2023/10/28 10:48:27;;;;;;;15.82;8.52;;;-0.70;99.90;;;;;;5032785;28;20667;-91
2023/10/28 10:50:59;;;;;;;16.05;7.97;;;-0.80;99.90;;;;;;5033432;28;20187;-92
2023/10/28 10:53:27;;;;;;;16.73;8.70;;;-0.80;99.90;;;;;;5016656;28;20767;-91
2023/10/28 10:55:54;;;;;;;14.70;8.07;;;-0.80;99.90;;;;;;5032909;28;20197;-92
2023/10/28 10:58:22;;;;;;;17.55;8.85;;;-0.80;99.90;;;;;;5047407;28;20745;-91
2023/10/28 11:00:52;;;;;;;16.38;9.27;;;-0.70;99.90;;;;;;5016151;28;20225;-91
2023/10/28 11:03:21;;;;;;;15.40;8.70;;;-0.70;99.90;;;;;;5048809;28;20271;-91
2023/10/28 11:05:51;;;;;;;15.63;8.73;;;-0.70;99.90;;;;;;5048590;28;20248;-91
2023/10/28 11:08:19;;;;;;;15.60;8.30;;;-0.70;99.90;;;;;;5032716;28;20194;-91
2023/10/28 11:10:47;;;;;;;16.67;9.18;;;-0.80;99.90;;;;;;5048935;28;20192;-91
2023/10/28 11:13:15;;;;;;;16.90;8.30;;;-0.80;99.90;;;;;;5049269;28;20679;-92
2023/10/28 11:15:44;;;;;;;14.75;8.13;;;-0.80;99.90;;;;;;5048864;28;20198;-92
2023/10/28 11:18:14;;;;;;;14.20;7.68;;;-0.80;99.90;;;;;;5016395;28;20196;-92
2023/10/28 11:20:45;;;;;;;15.95;8.50;;;-0.80;99.90;;;;;;5016464;28;20197;-91
2023/10/28 11:23:15;;;;;;;15.07;8.45;;;-0.80;99.90;;;;;;5048610;28;20241;-91
2023/10/28 11:25:48;;;;;;;17.08;9.07;;;-0.80;99.90;;;;;;5016093;28;20196;-90
2023/10/28 11:28:17;;;;;;;16.35;8.48;;;-0.80;99.90;;;;;;5016279;28;20190;-91
2023/10/28 11:30:51;;;;;;;18.27;9.40;;;-0.70;99.90;;;;;;5048315;28;20198;-93
2023/10/28 11:33:20;;;;;;;16.42;9.90;;;-0.70;99.90;;;;;;5015713;28;20202;-91
2023/10/28 11:35:52;;;;;;;16.48;8.40;;;-0.70;99.90;;;;;;5032172;28;20194;-91
2023/10/28 11:38:20;;;;;;;16.13;8.35;;;-0.70;99.90;;;;;;5015675;28;20190;-90
2023/10/28 11:41:00;;;;;;;17.35;8.75;;;-0.70;99.90;;;;;;5029140;28;20565;-89
2023/10/28 11:43:29;;;;;;;15.38;9.32;;;-0.80;99.90;;;;;;5026506;28;20210;-90
2023/10/28 11:45:57;;;;;;;21.20;9.60;;;-0.70;99.90;;;;;;5012690;28;20190;-90
2023/10/28 11:48:25;;;;;;;17.95;9.20;;;-0.70;99.90;;;;;;5027489;28;20214;-90
2023/10/28 11:50:54;;;;;;;16.30;8.70;;;-0.60;99.90;;;;;;5027292;28;20183;-90
2023/10/28 11:53:26;;;;;;;17.63;8.90;;;-0.60;99.90;;;;;;5027249;28;20270;-90
2023/10/28 11:55:55;;;;;;;19.30;9.30;;;-0.60;99.90;;;;;;5026219;28;20171;-91
2023/10/28 11:58:26;;;;;;;18.88;9.13;;;-0.60;99.90;;;;;;5026650;28;20198;-90
2023/10/28 12:00:55;;;;;;;19.50;9.68;;;-0.60;99.90;;;;;;5027252;28;20719;-90
2023/10/28 12:03:23;;;;;;;17.80;9.38;;;-0.60;99.90;;;;;;5027075;28;20293;-90
2023/10/28 12:05:51;;;;;;;18.23;9.43;;;-0.60;99.90;;;;;;5010565;28;20198;-89
2023/10/28 12:08:19;;;;;;;17.20;9.13;;;-0.60;99.90;;;;;;5027266;28;20257;-90
2023/10/28 12:10:47;;;;;;;17.17;9.65;;;-0.60;99.90;;;;;;5010453;28;20273;-89
2023/10/28 12:13:17;;;;;;;;;;;-0.50;99.90;;;;;;5027079;28;20193;-90
2023/10/28 12:15:45;;;;;;;20.80;10.75;;;-0.50;99.90;;;;;;5043632;28;20195;-89
2023/10/28 12:18:13;;;;;;;17.23;9.68;;;-0.50;99.90;;;;;;5027046;28;20610;-89
2023/10/28 12:20:44;;;;;;;17.50;9.40;;;-0.60;99.90;;;;;;5026815;28;20190;-90
2023/10/28 12:23:13;;;;;;;20.63;10.65;;;-0.60;99.90;;;;;;5026719;28;20210;-91
2023/10/28 12:25:41;;;;;;;19.50;10.07;;;-0.60;99.90;;;;;;5026800;28;20211;-89
2023/10/28 12:28:09;;;;;;;19.25;10.10;;;-0.60;99.90;;;;;;5026853;28;20190;-90
2023/10/28 12:30:37;;;;;;;17.10;9.68;;;-0.60;99.90;;;;;;5012069;28;20190;-90
2023/10/28 12:33:04;;;;;;;19.02;9.60;;;-0.60;99.90;;;;;;5027181;28;20195;-90
2023/10/28 12:35:32;;;;;;;21.48;10.57;;;-0.60;99.90;;;;;;5027480;28;20376;-90
2023/10/28 12:38:00;;;;;;;20.15;10.95;;;-0.60;99.90;;;;;;5043404;28;20191;-90
2023/10/28 12:40:28;;;;;;;17.17;10.13;;;-0.60;99.90;;;;;;5026171;28;20664;-90
2023/10/28 12:42:55;;;;;;;19.52;9.60;;;-0.60;99.90;;;;;;5028340;28;20246;-91
2023/10/28 12:45:23;;;;;;;18.92;10.57;;;-0.60;99.90;;;;;;5027250;28;20544;-91